KTBN

Waynesville-St. Robert Regional Airport

Airport
ICAO code
KTBN
Summary
ICAO Region
NAM
ICAO Territory
Location

Fort Leonard Wood/Waynesville, Missouri,

Coordinates
37° 44' 31" N , 92° 8' 26" W
KCC
Metar
Observation
KTBN 311920Z AUTO 18021G28KT 10SM SCT026 24/17 A2952 RMK AO2 PRESFR SLP992
Station
Fort Leonard Wood
Date/Time
2023-03-31 19:20:00
Wind direction
180°
Wind speed
21 kts
Lowest cloud amount
scattered clouds
Temperature
24°C
Dew point
17°C
Humidity
64%
Weather condition
n/a

Description

Waynesville-St. Robert Regional Airport, also known as Forney Field, is a public and military (USA) use airport located at Fort Leonard Wood in Pulaski County, Missouri.

Climatology

Humid “subtropical” climate (Köppen climate classification Cfa) - characterized by hot, humid summers and cool winters. Significant amounts of precipitation occur in all seasons in most areas. Winter rainfall (and sometimes snowfall) is associated with large storms that the westerlies steer from west to east. Most summer rainfall occurs during thunderstorms.

Runways

Designator Length Width Surface Rops
14/32 1840 46 ASP Yes/Yes

Airport map

Aerial View

SKYbrary Partners:

Safety knowledge contributed by: